Time;durP1;ratioP1;P1;durP2;ratioP2;P2;SDS_P1;SDS_P2;PMS_P1;PMS_P2;Temp;Humidity;BMP_temperature;BMP_pressure;BME280_temperature;BME280_humidity;BME280_pressure;Samples;Min_cycle;Max_cycle;Signal;HPM_P1;HPM_P2
2020/12/10 00:02:10;;;;;;;13.57;8.30;;;1.70;99.90;;;;;;8294566;28;20442;-66
2020/12/10 00:06:10;;;;;;;14.52;8.48;;;1.90;99.90;;;;;;8294259;28;20038;-66
2020/12/10 00:10:11;;;;;;;14.07;8.93;;;2.00;99.90;;;;;;8292805;28;20021;-66
2020/12/10 00:14:11;;;;;;;21.70;9.32;;;1.70;99.90;;;;;;8291655;28;20030;-67
2020/12/10 00:18:12;;;;;;;15.13;8.82;;;2.20;99.90;;;;;;8294267;28;20153;-66
2020/12/10 00:22:12;;;;;;;15.77;8.27;;;2.10;99.90;;;;;;8294524;28;20018;-66
2020/12/10 00:26:13;;;;;;;14.25;8.50;;;2.00;99.90;;;;;;8294735;28;20089;-67
2020/12/10 00:30:14;;;;;;;15.23;8.70;;;2.00;99.90;;;;;;8294264;28;20112;-68
2020/12/10 00:34:14;;;;;;;13.50;8.52;;;1.80;99.90;;;;;;8292477;28;20026;-67
2020/12/10 00:38:15;;;;;;;16.23;9.18;;;1.70;99.90;;;;;;8292864;28;20018;-67
2020/12/10 00:42:16;;;;;;;14.90;9.38;;;1.80;99.90;;;;;;8292966;28;20064;-67
2020/12/10 00:46:16;;;;;;;16.48;9.55;;;2.10;99.90;;;;;;8292862;28;20057;-67
2020/12/10 00:50:17;;;;;;;12.65;7.68;;;2.30;99.90;;;;;;8293898;28;20080;-67
2020/12/10 00:54:19;;;;;;;13.45;7.97;;;2.50;99.90;;;;;;8294231;28;20022;-66
2020/12/10 00:58:19;;;;;;;13.52;8.00;;;2.10;99.90;;;;;;8292703;28;20038;-66
2020/12/10 01:02:20;;;;;;;12.52;7.55;;;2.00;99.90;;;;;;8291174;28;20506;-66
2020/12/10 01:06:20;;;;;;;12.60;7.68;;;2.00;99.90;;;;;;8293132;28;20088;-67
2020/12/10 01:10:21;;;;;;;16.38;9.38;;;2.00;99.90;;;;;;8292729;28;20166;-67
2020/12/10 01:14:21;;;;;;;18.45;9.57;;;2.00;99.90;;;;;;8293145;28;20222;-67
2020/12/10 01:18:22;;;;;;;17.25;9.88;;;2.20;99.90;;;;;;8290109;28;20542;-67
2020/12/10 01:22:23;;;;;;;20.20;10.30;;;1.90;99.90;;;;;;8296585;28;20053;-66
2020/12/10 01:26:24;;;;;;;15.15;8.80;;;2.00;99.90;;;;;;8300052;28;20038;-66
2020/12/10 01:30:25;;;;;;;16.55;9.10;;;2.10;99.90;;;;;;8299632;28;20029;-66
2020/12/10 01:34:25;;;;;;;17.80;10.27;;;1.90;99.90;;;;;;8299580;28;20038;-67
2020/12/10 01:38:26;;;;;;;17.08;10.48;;;1.80;99.90;;;;;;8299529;28;20026;-67
2020/12/10 01:42:26;;;;;;;20.15;10.30;;;1.80;99.90;;;;;;8297949;28;20698;-67
2020/12/10 01:46:27;;;;;;;17.40;9.88;;;1.60;99.90;;;;;;8297360;28;20065;-67
2020/12/10 01:50:27;;;;;;;17.70;10.13;;;1.70;99.90;;;;;;8298405;28;20369;-66
2020/12/10 01:54:28;;;;;;;20.42;10.18;;;1.90;99.90;;;;;;8298745;28;20109;-66
2020/12/10 01:58:28;;;;;;;18.70;10.35;;;2.00;99.90;;;;;;8298237;28;20037;-66
2020/12/10 02:02:29;;;;;;;20.33;10.50;;;1.70;99.90;;;;;;8296187;28;20026;-67
2020/12/10 02:06:30;;;;;;;24.65;11.75;;;1.70;99.90;;;;;;8298497;28;20395;-67
2020/12/10 02:10:30;;;;;;;24.33;11.10;;;1.60;99.90;;;;;;8296409;28;20022;-66
2020/12/10 02:14:36;;;;;;;24.45;11.65;;;1.60;99.90;;;;;;8298336;28;20491;-67
2020/12/10 02:18:37;;;;;;;20.60;11.35;;;1.80;99.90;;;;;;8298173;28;20068;-67
2020/12/10 02:22:37;;;;;;;23.23;11.45;;;1.90;99.90;;;;;;8298235;28;20074;-67
2020/12/10 02:26:38;;;;;;;25.92;11.80;;;2.00;99.90;;;;;;8298182;28;20030;-67
2020/12/10 02:30:39;;;;;;;23.35;11.40;;;2.10;99.90;;;;;;8297643;28;20459;-67
2020/12/10 02:34:40;;;;;;;23.63;11.50;;;1.90;99.90;;;;;;8296944;28;20034;-67
2020/12/10 02:38:40;;;;;;;22.40;11.30;;;1.70;99.90;;;;;;8297488;28;20545;-67
2020/12/10 02:42:41;;;;;;;26.48;11.23;;;1.70;99.90;;;;;;8297620;28;20072;-67
2020/12/10 02:46:41;;;;;;;23.55;11.15;;;1.80;99.90;;;;;;8297425;28;20080;-66
2020/12/10 02:50:42;;;;;;;24.38;12.32;;;1.90;99.90;;;;;;8297392;28;20030;-67
2020/12/10 02:54:43;;;;;;;22.75;10.70;;;1.90;99.90;;;;;;8297308;28;20034;-67
2020/12/10 02:58:44;;;;;;;20.75;10.85;;;2.00;99.90;;;;;;8293838;28;20357;-66
2020/12/10 03:02:44;;;;;;;23.42;11.00;;;2.00;99.90;;;;;;8296247;28;20030;-67
2020/12/10 03:06:45;;;;;;;20.75;10.65;;;2.00;99.90;;;;;;8296485;28;20554;-67
2020/12/10 03:10:48;;;;;;;23.65;10.57;;;1.90;99.90;;;;;;8295955;28;20033;-67
2020/12/10 03:14:48;;;;;;;21.05;10.38;;;1.90;99.90;;;;;;8294359;28;20045;-66
2020/12/10 03:18:49;;;;;;;18.60;10.88;;;1.90;99.90;;;;;;8295904;28;20030;-67
2020/12/10 03:22:50;;;;;;;22.83;10.77;;;1.80;99.90;;;;;;8296338;28;20061;-67
2020/12/10 03:26:50;;;;;;;23.10;11.02;;;1.90;99.90;;;;;;8296376;28;20109;-67
2020/12/10 03:30:51;;;;;;;19.45;11.07;;;1.90;99.90;;;;;;8295759;28;20026;-66
2020/12/10 03:34:52;;;;;;;25.55;10.80;;;1.90;99.90;;;;;;8296026;28;20426;-67
2020/12/10 03:38:53;;;;;;;20.38;11.20;;;1.80;99.90;;;;;;8295287;28;20080;-67
2020/12/10 03:42:53;;;;;;;21.25;10.90;;;1.70;99.90;;;;;;8295933;28;20030;-67
2020/12/10 03:46:54;;;;;;;20.50;10.77;;;1.60;99.90;;;;;;8295678;28;20064;-67
2020/12/10 03:50:55;;;;;;;21.25;11.30;;;1.60;99.90;;;;;;8293354;28;20025;-66
2020/12/10 03:54:56;;;;;;;24.58;11.65;;;1.70;99.90;;;;;;8293483;28;20041;-66
2020/12/10 03:59:00;;;;;;;21.92;10.57;;;1.80;99.90;;;;;;8294684;28;20053;-67
2020/12/10 04:03:00;;;;;;;19.25;10.90;;;2.00;99.90;;;;;;8293465;28;20029;-66
2020/12/10 04:07:01;;;;;;;19.52;10.90;;;1.90;99.90;;;;;;8292849;28;20049;-67
2020/12/10 04:11:01;;;;;;;19.23;10.60;;;2.10;99.90;;;;;;8293932;28;20026;-67
2020/12/10 04:15:02;;;;;;;20.60;10.23;;;2.20;99.90;;;;;;8294970;28;20499;-67
2020/12/10 04:19:03;;;;;;;21.05;10.32;;;2.00;99.90;;;;;;8294787;28;20443;-67
2020/12/10 04:23:04;;;;;;;19.30;10.85;;;1.80;99.90;;;;;;8294734;28;20491;-67
2020/12/10 04:27:04;;;;;;;19.75;10.57;;;1.70;99.90;;;;;;8294388;28;20076;-67
2020/12/10 04:31:05;;;;;;;20.10;10.45;;;1.60;99.90;;;;;;8293891;28;20034;-67
2020/12/10 04:35:05;;;;;;;20.17;10.85;;;1.60;99.90;;;;;;8293789;28;20096;-67
2020/12/10 04:39:06;;;;;;;18.80;9.88;;;2.00;99.90;;;;;;8292625;28;20083;-67
2020/12/10 04:43:09;;;;;;;17.63;9.77;;;2.20;99.90;;;;;;8294305;28;20037;-67
2020/12/10 04:47:10;;;;;;;21.17;11.40;;;1.90;99.90;;;;;;8294246;28;20021;-66
2020/12/10 04:51:11;;;;;;;20.58;10.93;;;2.00;99.90;;;;;;8293913;28;20438;-67
2020/12/10 04:55:11;;;;;;;19.13;11.18;;;2.00;99.90;;;;;;8294206;28;20030;-67
2020/12/10 04:59:12;;;;;;;20.10;10.45;;;1.60;99.90;;;;;;8296797;28;20045;-67
2020/12/10 05:03:15;;;;;;;21.60;11.50;;;1.70;99.90;;;;;;8298228;28;20022;-67
2020/12/10 05:07:16;;;;;;;18.55;10.20;;;1.70;99.90;;;;;;8299303;28;20104;-68
2020/12/10 05:11:33;;;;;;;17.35;9.93;;;1.70;99.90;;;;;;8297413;28;20026;-67
2020/12/10 05:15:35;;;;;;;17.65;10.45;;;2.10;99.90;;;;;;8295421;28;20037;-67
2020/12/10 05:19:36;;;;;;;19.25;10.57;;;1.90;99.90;;;;;;8299930;28;20030;-67
2020/12/10 05:23:38;;;;;;;17.70;10.48;;;1.70;99.90;;;;;;8298525;28;20513;-67
2020/12/10 05:27:39;;;;;;;19.63;10.32;;;1.90;99.90;;;;;;8300079;28;20033;-66
2020/12/10 05:31:40;;;;;;;18.42;10.02;;;1.70;99.90;;;;;;8298118;28;20031;-67
2020/12/10 05:35:41;;;;;;;16.73;9.85;;;1.90;99.90;;;;;;8298231;28;20032;-67
2020/12/10 05:39:57;;;;;;;16.60;9.70;;;2.10;99.90;;;;;;8298769;28;20029;-67
2020/12/10 05:44:14;;;;;;;19.15;9.93;;;2.00;99.90;;;;;;8264050;28;20376;-65
2020/12/10 05:48:20;;;;;;;19.50;10.18;;;2.00;99.90;;;;;;8267058;28;20029;-68
2020/12/10 05:52:25;;;;;;;17.75;10.32;;;1.80;99.90;;;;;;8296484;28;20484;-68
2020/12/10 05:56:33;;;;;;;22.65;11.32;;;1.60;99.90;;;;;;8298138;28;20160;-68
2020/12/10 06:00:35;;;;;;;23.40;12.13;;;1.70;99.90;;;;;;8298894;28;20391;-67
2020/12/10 06:04:36;;;;;;;26.98;12.68;;;1.80;99.90;;;;;;8297233;28;20025;-68
2020/12/10 06:08:38;;;;;;;24.38;12.23;;;2.00;99.90;;;;;;8297250;28;20060;-68
2020/12/10 06:12:39;;;;;;;26.73;12.30;;;1.90;99.90;;;;;;8297911;28;20104;-68
2020/12/10 06:16:39;;;;;;;28.02;12.73;;;1.90;99.90;;;;;;8298345;28;20025;-68
2020/12/10 06:20:42;;;;;;;25.02;11.93;;;2.00;99.90;;;;;;8298035;28;20022;-68
2020/12/10 06:24:42;;;;;;;24.30;12.73;;;2.00;99.90;;;;;;8296862;28;20029;-68
2020/12/10 06:28:43;;;;;;;22.65;11.80;;;2.10;99.90;;;;;;8297965;28;20026;-67
2020/12/10 06:32:44;;;;;;;22.67;12.00;;;2.00;99.90;;;;;;8297227;28;20045;-67
2020/12/10 06:36:45;;;;;;;24.00;12.57;;;1.70;99.90;;;;;;8297018;28;20021;-67
2020/12/10 06:40:46;;;;;;;23.70;11.77;;;1.70;99.90;;;;;;8296067;28;20383;-68
2020/12/10 06:44:47;;;;;;;29.77;14.48;;;1.80;99.90;;;;;;8297540;28;20108;-68
2020/12/10 06:48:49;;;;;;;24.92;13.30;;;1.70;99.90;;;;;;8297493;28;20054;-67
2020/12/10 06:53:10;;;;;;;23.98;11.90;;;1.60;99.90;;;;;;8297306;28;20492;-68
2020/12/10 06:57:10;;;;;;;25.88;11.80;;;1.50;99.90;;;;;;8296674;28;20037;-68
2020/12/10 07:01:23;;;;;;;22.50;11.48;;;1.40;99.90;;;;;;8297016;28;20040;-68
2020/12/10 07:05:30;;;;;;;25.95;12.65;;;1.40;99.90;;;;;;8295726;28;20475;-67
2020/12/10 07:09:48;;;;;;;26.98;12.18;;;1.40;99.90;;;;;;8296514;28;20128;-68
2020/12/10 07:13:49;;;;;;;26.15;12.27;;;1.30;99.90;;;;;;8293574;28;20038;-68
2020/12/10 07:17:50;;;;;;;26.13;13.38;;;1.30;99.90;;;;;;8282896;28;20028;-68
2020/12/10 07:21:51;;;;;;;26.50;12.85;;;1.20;99.90;;;;;;8289679;28;20435;-68
2020/12/10 07:25:51;;;;;;;28.77;13.73;;;1.20;99.90;;;;;;8293504;28;20014;-68
2020/12/10 07:29:52;;;;;;;26.05;13.07;;;1.50;99.90;;;;;;8293829;28;20018;-68
2020/12/10 07:33:56;;;;;;;31.10;14.10;;;1.60;99.90;;;;;;8294071;28;20022;-68
2020/12/10 07:38:08;;;;;;;31.52;14.70;;;1.50;99.90;;;;;;8294993;28;20030;-68
2020/12/10 07:42:09;;;;;;;27.02;13.68;;;1.60;99.90;;;;;;8292292;28;20025;-68
2020/12/10 07:46:09;;;;;;;28.00;13.45;;;1.70;99.90;;;;;;8294911;28;20068;-67
2020/12/10 07:50:21;;;;;;;26.23;14.05;;;2.00;99.90;;;;;;8294728;28;20025;-68
2020/12/10 07:54:22;;;;;;;24.40;13.57;;;2.10;99.90;;;;;;8291581;28;20018;-68
2020/12/10 07:58:34;;;;;;;27.55;13.90;;;2.00;99.90;;;;;;8294511;28;20411;-68
2020/12/10 08:03:08;;;;;;;25.08;12.88;;;1.70;99.90;;;;;;8294436;28;20014;-68
2020/12/10 08:07:12;;;;;;;26.08;13.32;;;2.00;99.90;;;;;;8292835;28;20022;-68
2020/12/10 08:11:14;;;;;;;24.48;13.10;;;2.20;99.90;;;;;;8292409;28;20487;-68
2020/12/10 08:15:21;;;;;;;29.77;14.57;;;2.30;99.90;;;;;;8294004;28;20079;-67
2020/12/10 08:19:25;;;;;;;24.98;13.75;;;2.40;99.90;;;;;;8262230;28;20030;-68
2020/12/10 08:23:25;;;;;;;25.42;13.70;;;2.80;99.90;;;;;;8269951;28;20022;-68
2020/12/10 08:27:26;;;;;;;25.45;12.57;;;2.60;99.90;;;;;;8293440;28;20108;-68
2020/12/10 08:31:28;;;;;;;24.33;12.48;;;2.80;99.90;;;;;;8291774;28;20052;-67
2020/12/10 08:35:41;;;;;;;23.08;11.82;;;2.80;99.90;;;;;;8289415;28;20033;-68
2020/12/10 08:39:41;;;;;;;28.50;13.43;;;2.60;99.90;;;;;;8292040;28;20073;-68
2020/12/10 08:43:57;;;;;;;23.45;12.35;;;2.70;99.90;;;;;;8291974;28;20022;-67
2020/12/10 08:47:59;;;;;;;37.47;22.92;;;2.90;99.90;;;;;;8291992;28;20040;-68
2020/12/10 08:52:00;;;;;;;19.75;9.82;;;3.00;99.90;;;;;;8293185;28;20029;-68
2020/12/10 08:56:03;;;;;;;17.23;9.25;;;2.90;99.90;;;;;;8292851;28;20041;-68
2020/12/10 09:00:04;;;;;;;19.83;10.23;;;2.70;99.90;;;;;;8293202;28;20025;-68
2020/12/10 09:04:04;;;;;;;18.67;9.75;;;2.80;99.90;;;;;;8289933;28;20536;-68
2020/12/10 09:08:05;;;;;;;16.17;8.88;;;3.00;99.90;;;;;;8280282;28;20033;-68
2020/12/10 09:12:05;;;;;;;14.73;8.55;;;2.90;99.90;;;;;;8291164;28;20030;-68
2020/12/10 09:16:06;;;;;;;15.05;8.70;;;2.90;99.90;;;;;;8292041;28;20038;-68
2020/12/10 09:20:07;;;;;;;13.80;8.25;;;3.00;99.90;;;;;;8291943;28;20018;-68
2020/12/10 09:24:08;;;;;;;13.82;7.70;;;2.80;99.90;;;;;;8291618;28;20034;-68
2020/12/10 09:28:09;;;;;;;14.98;8.00;;;2.80;99.90;;;;;;8282748;28;20026;-67
2020/12/10 09:32:10;;;;;;;11.18;7.32;;;3.00;99.90;;;;;;8274708;28;20033;-68
2020/12/10 09:36:10;;;;;;;8.65;5.13;;;3.30;99.90;;;;;;8291047;28;20116;-68
2020/12/10 09:40:12;;;;;;;9.38;6.00;;;3.20;99.90;;;;;;8265038;28;20066;-68
2020/12/10 09:44:13;;;;;;;10.32;6.35;;;3.10;99.90;;;;;;8270206;28;20053;-68
2020/12/10 09:48:14;;;;;;;10.50;6.60;;;3.20;99.90;;;;;;8297875;28;20057;-68
2020/12/10 09:52:14;;;;;;;9.65;6.32;;;3.20;99.90;;;;;;8298325;28;20033;-68
2020/12/10 10:00:19;;;;;;;10.07;6.38;;;3.60;99.90;;;;;;8289081;28;20073;-68
2020/12/10 10:04:19;;;;;;;11.05;6.90;;;3.70;99.90;;;;;;8296173;28;20037;-68
2020/12/10 10:08:23;;;;;;;9.73;6.50;;;3.70;99.90;;;;;;8296295;28;20049;-68
2020/12/10 10:12:24;;;;;;;10.70;6.30;;;3.70;99.90;;;;;;8295831;28;20022;-68
2020/12/10 10:16:31;;;;;;;10.85;6.53;;;3.80;99.90;;;;;;8295311;28;20060;-68
2020/12/10 10:20:31;;;;;;;10.30;6.00;;;3.80;99.90;;;;;;8297234;28;20476;-68
2020/12/10 10:24:32;;;;;;;10.52;6.53;;;3.90;99.90;;;;;;8290348;28;20026;-68
2020/12/10 10:28:33;;;;;;;10.82;6.72;;;3.90;99.90;;;;;;8293679;28;20053;-68
2020/12/10 10:32:34;;;;;;;11.68;7.32;;;4.00;99.90;;;;;;8270318;28;20504;-67
2020/12/10 10:36:35;;;;;;;10.50;6.70;;;4.20;99.90;;;;;;8291832;28;20026;-68
2020/12/10 10:40:39;;;;;;;9.88;6.60;;;4.30;99.90;;;;;;8296665;28;20018;-68
2020/12/10 10:44:39;;;;;;;10.07;6.60;;;4.30;99.90;;;;;;8296862;28;20164;-67
2020/12/10 10:48:40;;;;;;;11.60;6.47;;;4.30;99.90;;;;;;8294595;28;20038;-68
2020/12/10 10:52:41;;;;;;;11.30;6.88;;;4.40;99.90;;;;;;8296413;28;20026;-68
2020/12/10 10:56:41;;;;;;;9.48;6.45;;;4.60;99.90;;;;;;8295240;28;20026;-68
2020/12/10 11:00:46;;;;;;;9.45;6.50;;;4.70;99.90;;;;;;8296207;28;20391;-68
2020/12/10 11:04:46;;;;;;;10.38;6.78;;;4.80;99.90;;;;;;8296775;28;20026;-68
2020/12/10 11:08:47;;;;;;;9.82;6.70;;;4.80;99.90;;;;;;8295527;28;20116;-68
2020/12/10 11:12:51;;;;;;;12.63;7.40;;;5.00;99.90;;;;;;8296606;28;20124;-68
2020/12/10 11:16:56;;;;;;;10.02;7.10;;;5.10;99.90;;;;;;8296645;28;20665;-69
2020/12/10 11:20:56;;;;;;;10.23;7.22;;;5.00;99.90;;;;;;8288169;28;20030;-68
2020/12/10 11:24:57;;;;;;;13.25;8.13;;;5.10;99.90;;;;;;8288927;28;20026;-68
2020/12/10 11:28:57;;;;;;;11.75;7.60;;;5.10;99.90;;;;;;8278587;28;20046;-68
2020/12/10 11:32:58;;;;;;;11.48;7.70;;;5.10;99.90;;;;;;8269516;28;20061;-68
2020/12/10 11:36:59;;;;;;;13.10;8.15;;;5.00;99.90;;;;;;8278075;28;20483;-68
2020/12/10 11:40:59;;;;;;;12.60;8.18;;;5.00;99.90;;;;;;8295467;28;20022;-67
2020/12/10 11:45:03;;;;;;;13.93;8.50;;;5.10;99.90;;;;;;8294619;28;20084;-68
2020/12/10 11:49:04;;;;;;;13.63;8.40;;;5.00;99.90;;;;;;8295496;28;20510;-68
2020/12/10 11:53:06;;;;;;;14.85;7.88;;;4.90;99.90;;;;;;8294344;28;20403;-68
2020/12/10 11:57:07;;;;;;;13.95;8.98;;;5.00;99.90;;;;;;8295598;28;20025;-68
2020/12/10 12:01:08;;;;;;;13.50;8.55;;;5.00;99.90;;;;;;8294028;28;20135;-68
2020/12/10 12:05:09;;;;;;;16.42;9.32;;;5.00;99.90;;;;;;8293802;28;20021;-68
2020/12/10 12:09:09;;;;;;;14.73;9.25;;;4.70;99.90;;;;;;8295028;28;20033;-68
2020/12/10 12:13:10;;;;;;;15.88;9.57;;;4.50;99.90;;;;;;8294992;28;20503;-68
2020/12/10 12:17:10;;;;;;;14.85;9.07;;;4.60;99.90;;;;;;8293579;28;20125;-68
2020/12/10 12:21:11;;;;;;;14.55;9.55;;;4.60;99.90;;;;;;8294588;28;20072;-68
2020/12/10 12:25:11;;;;;;;15.90;9.45;;;4.80;99.90;;;;;;8294770;28;20133;-68
2020/12/10 12:29:12;;;;;;;15.93;9.82;;;4.70;99.90;;;;;;8294662;28;20089;-68
2020/12/10 12:33:12;;;;;;;16.77;9.90;;;4.70;99.90;;;;;;8293148;28;20022;-68
2020/12/10 12:37:13;;;;;;;20.70;10.50;;;4.80;99.90;;;;;;8293978;28;20033;-68
2020/12/10 12:41:13;;;;;;;18.75;10.80;;;4.60;99.90;;;;;;8292851;28;20615;-68
2020/12/10 12:45:14;;;;;;;16.80;9.95;;;4.60;99.90;;;;;;8294391;28;20483;-68
2020/12/10 12:49:15;;;;;;;18.95;10.82;;;4.60;99.90;;;;;;8294128;28;20038;-68
2020/12/10 12:53:15;;;;;;;17.52;10.63;;;4.50;99.90;;;;;;8293039;28;20125;-68
2020/12/10 12:57:18;;;;;;;20.73;11.75;;;4.40;99.90;;;;;;8293886;28;20033;-68
2020/12/10 13:01:20;;;;;;;16.70;10.20;;;4.30;99.90;;;;;;8293816;28;20029;-68
2020/12/10 13:05:20;;;;;;;21.90;12.00;;;4.20;99.90;;;;;;8292657;28;20022;-68
2020/12/10 13:09:21;;;;;;;22.33;11.65;;;4.10;99.90;;;;;;8293987;28;20022;-68
2020/12/10 13:13:22;;;;;;;21.08;12.43;;;4.10;99.90;;;;;;8293896;28;20044;-68
2020/12/10 13:17:22;;;;;;;20.42;11.63;;;4.10;99.90;;;;;;8295257;28;20034;-68
2020/12/10 13:21:24;;;;;;;23.30;12.82;;;4.00;99.90;;;;;;8300177;28;20121;-68
2020/12/10 13:25:26;;;;;;;25.65;13.13;;;4.00;99.90;;;;;;8297876;28;20026;-68
2020/12/10 13:29:26;;;;;;;23.55;12.60;;;4.00;99.90;;;;;;8266950;28;20028;-68
2020/12/10 13:33:27;;;;;;;23.17;12.18;;;4.00;99.90;;;;;;8284486;28;20392;-68
2020/12/10 13:37:27;;;;;;;22.98;12.48;;;4.00;99.90;;;;;;8298957;28;20042;-68
2020/12/10 13:41:28;;;;;;;22.92;12.88;;;3.90;99.90;;;;;;8298062;28;20030;-68
2020/12/10 13:45:29;;;;;;;25.13;13.30;;;3.70;99.90;;;;;;8297281;28;20049;-68
2020/12/10 13:49:29;;;;;;;25.45;13.23;;;3.60;99.90;;;;;;8297039;28;20483;-68
2020/12/10 13:53:30;;;;;;;24.13;13.27;;;3.60;99.90;;;;;;8294016;28;20069;-68
2020/12/10 13:57:32;;;;;;;23.88;13.10;;;3.60;99.90;;;;;;8288670;28;20061;-68
2020/12/10 14:01:33;;;;;;;24.60;13.18;;;3.50;99.90;;;;;;8286069;28;20033;-68
2020/12/10 14:05:34;;;;;;;28.10;14.73;;;3.40;99.90;;;;;;8294942;28;20048;-68
2020/12/10 14:09:34;;;;;;;28.55;14.60;;;3.20;99.90;;;;;;8290411;28;20034;-68
2020/12/10 14:13:37;;;;;;;29.15;15.25;;;3.10;99.90;;;;;;8295272;28;20042;-68
2020/12/10 14:17:38;;;;;;;32.00;14.82;;;3.10;99.90;;;;;;8293842;28;20040;-68
2020/12/10 14:21:38;;;;;;;30.90;15.15;;;3.00;99.90;;;;;;8294099;28;20026;-68
2020/12/10 14:25:39;;;;;;;32.10;15.40;;;2.90;99.90;;;;;;8293166;28;20044;-68
2020/12/10 14:29:40;;;;;;;31.98;15.65;;;2.90;99.90;;;;;;8291919;28;20073;-67
2020/12/10 14:33:41;;;;;;;35.15;16.50;;;3.00;99.90;;;;;;8294273;28;20033;-68
2020/12/10 14:37:41;;;;;;;32.00;15.32;;;2.90;99.90;;;;;;8287206;28;20169;-68
2020/12/10 14:41:42;;;;;;;36.83;16.67;;;2.80;99.90;;;;;;8286995;28;20072;-67
2020/12/10 14:45:44;;;;;;;36.80;17.20;;;2.60;99.90;;;;;;8286958;28;20037;-68
2020/12/10 14:49:45;;;;;;;41.35;17.02;;;2.60;99.90;;;;;;8288636;28;20442;-68
2020/12/10 14:53:45;;;;;;;38.83;17.10;;;2.60;99.90;;;;;;8287887;28;20033;-68
2020/12/10 14:57:46;;;;;;;41.65;17.55;;;2.60;99.90;;;;;;8284913;28;20023;-72
2020/12/10 15:01:47;;;;;;;35.30;15.90;;;2.50;99.90;;;;;;8288462;28;20034;-69
2020/12/10 15:05:47;;;;;;;39.00;16.52;;;2.40;99.90;;;;;;8291840;28;20064;-70
2020/12/10 15:09:48;;;;;;;34.30;16.08;;;2.40;99.90;;;;;;8293224;28;20029;-68
2020/12/10 15:13:49;;;;;;;39.15;16.50;;;2.30;99.90;;;;;;8270657;28;20030;-68
2020/12/10 15:17:50;;;;;;;38.38;17.25;;;2.40;99.90;;;;;;8278250;28;20027;-69
2020/12/10 15:21:54;;;;;;;40.22;16.95;;;2.30;99.90;;;;;;8269126;28;20062;-68
2020/12/10 15:25:55;;;;;;;35.05;16.67;;;2.30;99.90;;;;;;8269019;28;20029;-69
2020/12/10 15:29:56;;;;;;;42.92;17.75;;;2.30;99.90;;;;;;8268160;28;20054;-68
2020/12/10 15:33:56;;;;;;;41.63;17.13;;;2.30;99.90;;;;;;8281613;28;20057;-68
2020/12/10 15:37:58;;;;;;;39.03;16.92;;;2.30;99.90;;;;;;8288889;28;20061;-69
2020/12/10 15:42:03;;;;;;;39.75;17.77;;;2.20;99.90;;;;;;8293085;28;20026;-69
2020/12/10 15:46:04;;;;;;;38.85;17.38;;;2.10;99.90;;;;;;8294962;28;20399;-68
2020/12/10 15:50:08;;;;;;;39.47;16.63;;;2.30;99.90;;;;;;8294164;28;20032;-68
2020/12/10 15:54:09;;;;;;;40.10;17.42;;;2.20;99.90;;;;;;8292988;28;20025;-69
2020/12/10 15:58:09;;;;;;;37.53;16.58;;;2.00;99.90;;;;;;8290664;28;20033;-69
2020/12/10 16:02:10;;;;;;;40.65;17.05;;;2.30;99.90;;;;;;8285420;28;20108;-69
2020/12/10 16:06:10;;;;;;;40.08;17.58;;;2.30;99.90;;;;;;8277419;28;20061;-69
2020/12/10 16:10:11;;;;;;;39.67;16.88;;;2.30;99.90;;;;;;8282861;28;20105;-69
2020/12/10 16:14:12;;;;;;;43.58;16.63;;;1.90;99.90;;;;;;8262144;28;20053;-68
2020/12/10 16:18:12;;;;;;;43.08;17.40;;;1.80;99.90;;;;;;8278909;28;20030;-69
2020/12/10 16:22:13;;;;;;;42.95;17.98;;;1.80;99.90;;;;;;8284758;28;20033;-67
2020/12/10 16:26:13;;;;;;;40.72;17.15;;;1.70;99.90;;;;;;8289395;28;20044;-67
2020/12/10 16:30:14;;;;;;;41.17;17.67;;;1.70;99.90;;;;;;8293423;28;20058;-67
2020/12/10 16:34:16;;;;;;;49.85;18.27;;;2.10;99.90;;;;;;8289748;28;20048;-67
2020/12/10 16:38:17;;;;;;;39.78;16.88;;;1.90;99.90;;;;;;8281864;28;20046;-67
2020/12/10 16:42:18;;;;;;;38.53;17.10;;;1.90;99.90;;;;;;8286124;28;20159;-67
2020/12/10 16:46:18;;;;;;;37.95;16.42;;;2.10;99.90;;;;;;8291869;28;20100;-67
2020/12/10 16:50:21;;;;;;;38.97;16.40;;;2.10;99.90;;;;;;8289436;28;20487;-67
2020/12/10 16:54:22;;;;;;;38.45;17.13;;;2.10;99.90;;;;;;8290265;28;20054;-67
2020/12/10 16:58:23;;;;;;;39.83;16.80;;;2.00;99.90;;;;;;8293287;28;20084;-67
2020/12/10 17:02:26;;;;;;;33.97;14.95;;;2.10;99.90;;;;;;8283519;28;20030;-67
2020/12/10 17:06:26;;;;;;;37.10;16.55;;;2.10;99.90;;;;;;8283502;28;20018;-67
2020/12/10 17:10:27;;;;;;;39.10;15.48;;;2.00;99.90;;;;;;8287012;28;20096;-68
2020/12/10 17:14:29;;;;;;;40.67;16.92;;;2.00;99.90;;;;;;8292956;28;20117;-69
2020/12/10 17:18:29;;;;;;;38.10;15.90;;;1.70;99.90;;;;;;8292212;28;20076;-69
2020/12/10 17:22:30;;;;;;;39.50;17.02;;;1.70;99.90;;;;;;8293264;28;20022;-69
2020/12/10 17:26:32;;;;;;;37.78;16.58;;;1.60;99.90;;;;;;8293369;28;20052;-69
2020/12/10 17:30:32;;;;;;;41.20;16.77;;;1.70;99.90;;;;;;8291623;28;20040;-69
2020/12/10 17:34:33;;;;;;;41.45;17.55;;;2.00;99.90;;;;;;8291844;28;20030;-69
2020/12/10 17:38:33;;;;;;;43.60;16.05;;;1.90;99.90;;;;;;8286551;28;20255;-69
2020/12/10 17:42:34;;;;;;;40.83;17.08;;;1.70;99.90;;;;;;8284668;28;20448;-69
2020/12/10 17:46:34;;;;;;;41.05;16.50;;;1.80;99.90;;;;;;8290051;28;20038;-68
2020/12/10 17:50:35;;;;;;;42.58;18.02;;;1.50;99.90;;;;;;8291865;28;20110;-69
2020/12/10 17:54:37;;;;;;;44.85;18.20;;;1.40;99.90;;;;;;8292199;28;20091;-69
2020/12/10 17:58:40;;;;;;;39.05;16.10;;;1.40;99.90;;;;;;8286384;28;20522;-69
2020/12/10 18:02:40;;;;;;;41.72;16.67;;;1.40;99.90;;;;;;8292958;28;20053;-69
2020/12/10 18:06:41;;;;;;;43.30;17.27;;;1.40;99.90;;;;;;8289009;28;20022;-69
2020/12/10 18:10:42;;;;;;;36.55;16.50;;;1.50;99.90;;;;;;8294342;28;20034;-69
2020/12/10 18:14:42;;;;;;;42.20;17.23;;;1.70;99.90;;;;;;8292595;28;20483;-69
2020/12/10 18:18:43;;;;;;;42.85;17.52;;;1.60;99.90;;;;;;8286309;28;20042;-69
2020/12/10 18:22:44;;;;;;;36.53;16.35;;;1.50;99.90;;;;;;8282895;28;20026;-72
2020/12/10 18:26:45;;;;;;;41.20;16.80;;;1.50;99.90;;;;;;8281113;28;20058;-69
2020/12/10 18:30:46;;;;;;;39.15;17.38;;;1.50;99.90;;;;;;8286579;28;20056;-71
2020/12/10 18:34:46;;;;;;;37.97;17.27;;;1.50;99.90;;;;;;8285334;28;20027;-71
2020/12/10 18:38:47;;;;;;;37.78;16.88;;;1.70;99.90;;;;;;8281358;28;20041;-72
2020/12/10 18:42:53;;;;;;;34.85;15.65;;;1.70;99.90;;;;;;8291981;28;20072;-71
2020/12/10 18:46:54;;;;;;;33.38;15.32;;;1.90;99.90;;;;;;8286164;28;20380;-67
2020/12/10 18:50:55;;;;;;;36.80;16.70;;;2.00;99.90;;;;;;8284346;28;20090;-67
2020/12/10 18:54:56;;;;;;;43.42;19.20;;;2.10;99.90;;;;;;8280294;28;20034;-67
2020/12/10 18:58:57;;;;;;;35.08;15.70;;;2.00;99.90;;;;;;8267449;28;20030;-67
2020/12/10 19:02:59;;;;;;;30.42;15.68;;;2.00;99.90;;;;;;8272722;28;20022;-67
2020/12/10 19:07:01;;;;;;;31.67;14.60;;;2.10;99.90;;;;;;8265512;28;20492;-67
2020/12/10 19:11:01;;;;;;;48.20;22.42;;;1.80;99.90;;;;;;8259683;28;20022;-67
2020/12/10 19:15:03;;;;;;;37.47;16.10;;;1.90;99.90;;;;;;8282421;28;20038;-67
2020/12/10 19:19:04;;;;;;;32.05;15.38;;;1.90;99.90;;;;;;8273147;28;20030;-67
2020/12/10 19:23:04;;;;;;;45.95;20.40;;;1.90;99.90;;;;;;8279588;28;20087;-67
2020/12/10 19:27:05;;;;;;;38.75;17.83;;;2.00;99.90;;;;;;8271006;28;20030;-69
2020/12/10 19:31:06;;;;;;;37.75;17.45;;;2.00;99.90;;;;;;8273644;28;20034;-67
2020/12/10 19:35:08;;;;;;;43.60;19.38;;;1.80;99.90;;;;;;8273239;28;20034;-67
2020/12/10 19:39:08;;;;;;;35.15;16.60;;;1.60;99.90;;;;;;8260079;28;20043;-67
2020/12/10 19:43:09;;;;;;;38.60;18.65;;;1.50;99.90;;;;;;8258359;28;20049;-67
2020/12/10 19:47:10;;;;;;;48.25;23.08;;;1.50;99.90;;;;;;8258975;28;20031;-66
2020/12/10 19:51:16;;;;;;;38.80;17.00;;;1.60;99.90;;;;;;8270580;28;20461;-67
2020/12/10 19:55:17;;;;;;;35.78;17.50;;;1.60;99.90;;;;;;8256707;28;20080;-67
2020/12/10 19:59:17;;;;;;;44.75;20.77;;;1.70;99.90;;;;;;8267115;28;20032;-69
2020/12/10 20:03:18;;;;;;;38.08;18.35;;;1.80;99.90;;;;;;8269232;28;20073;-68
2020/12/10 20:07:19;;;;;;;30.80;15.98;;;2.00;99.90;;;;;;8278858;28;20026;-69
2020/12/10 20:11:19;;;;;;;32.72;16.58;;;2.10;99.90;;;;;;8276587;28;20034;-69
2020/12/10 20:15:20;;;;;;;35.97;16.75;;;1.90;99.90;;;;;;8268174;28;20034;-69
2020/12/10 20:19:21;;;;;;;39.65;18.50;;;1.60;99.90;;;;;;8267798;28;20081;-69
2020/12/10 20:23:23;;;;;;;34.03;16.67;;;1.50;99.90;;;;;;8289175;28;20061;-69
2020/12/10 20:27:24;;;;;;;30.35;15.90;;;1.50;99.90;;;;;;8287714;28;20026;-69
2020/12/10 20:31:24;;;;;;;31.38;16.05;;;1.60;99.90;;;;;;8289698;28;20669;-69
2020/12/10 20:35:25;;;;;;;27.40;13.95;;;1.60;99.90;;;;;;8288316;28;20029;-69
2020/12/10 20:39:27;;;;;;;24.27;13.65;;;1.60;99.90;;;;;;8288854;28;20029;-69
2020/12/10 20:43:27;;;;;;;25.90;14.23;;;1.50;99.90;;;;;;8284556;28;20644;-69
2020/12/10 20:47:28;;;;;;;25.38;14.32;;;1.50;99.90;;;;;;8281384;28;20103;-67
2020/12/10 20:51:29;;;;;;;23.60;14.02;;;1.60;99.90;;;;;;8287844;28;20029;-67